Terminal Aerodrome Forecast
Issued by NWS

Home | Current Version | Previous Version | Text Only | Print | Product List | Glossary Off
Versions: 1 2 3 4 5 6 7 8 9 10 11 12 13 14 15 16 17 18 19 20

000
FTUS42 KMHX 241514 AAA
TAFOAJ
TAF AMD
KOAJ 241514Z 2415/2512 06008KT 5SM -SHRA SCT002 OVC004
     FM241630 12012G22KT 5SM -SHRA SCT020 OVC035
     FM250000 10012G20KT 2SM +SHRA VCTS SCT007 OVC020CB
     FM250900 12010G15KT 5SM -SHRA SCT007 BKN015
      AMD LTD TO CLD VIS AND WIND=

USA.gov is the U.S. government's official web portal to all federal, state and local government web resources and services.